sensor_id;sensor_type;location;lat;lon;timestamp;P1;durP1;ratioP1;P2;durP2;ratioP2
5147;SDS011;2592;48.140;7.614;2023-05-23T00:00:59;14.30;;;10.60;;
5147;SDS011;2592;48.140;7.614;2023-05-23T00:03:25;11.00;;;8.90;;
5147;SDS011;2592;48.140;7.614;2023-05-23T00:05:54;10.40;;;9.23;;
5147;SDS011;2592;48.140;7.614;2023-05-23T00:08:21;13.03;;;9.37;;
5147;SDS011;2592;48.140;7.614;2023-05-23T00:10:47;18.17;;;10.20;;
5147;SDS011;2592;48.140;7.614;2023-05-23T00:13:14;10.63;;;9.43;;
5147;SDS011;2592;48.140;7.614;2023-05-23T00:15:41;13.20;;;10.10;;
5147;SDS011;2592;48.140;7.614;2023-05-23T00:18:08;13.40;;;9.87;;
5147;SDS011;2592;48.140;7.614;2023-05-23T00:20:35;11.50;;;9.93;;
5147;SDS011;2592;48.140;7.614;2023-05-23T00:23:03;13.57;;;8.90;;
5147;SDS011;2592;48.140;7.614;2023-05-23T00:25:29;12.47;;;11.00;;
5147;SDS011;2592;48.140;7.614;2023-05-23T00:27:58;12.27;;;10.30;;
5147;SDS011;2592;48.140;7.614;2023-05-23T00:30:24;14.40;;;11.43;;
5147;SDS011;2592;48.140;7.614;2023-05-23T00:32:51;12.33;;;11.03;;
5147;SDS011;2592;48.140;7.614;2023-05-23T00:35:18;15.10;;;12.13;;
5147;SDS011;2592;48.140;7.614;2023-05-23T00:37:45;11.83;;;10.63;;
5147;SDS011;2592;48.140;7.614;2023-05-23T00:40:15;19.40;;;12.00;;
5147;SDS011;2592;48.140;7.614;2023-05-23T00:42:42;13.73;;;12.33;;
5147;SDS011;2592;48.140;7.614;2023-05-23T00:45:08;12.03;;;10.37;;
5147;SDS011;2592;48.140;7.614;2023-05-23T00:47:36;12.47;;;10.33;;
5147;SDS011;2592;48.140;7.614;2023-05-23T00:50:03;14.00;;;9.80;;
5147;SDS011;2592;48.140;7.614;2023-05-23T00:52:29;11.57;;;10.47;;
5147;SDS011;2592;48.140;7.614;2023-05-23T00:54:56;12.27;;;10.73;;
5147;SDS011;2592;48.140;7.614;2023-05-23T00:57:24;18.13;;;10.80;;
5147;SDS011;2592;48.140;7.614;2023-05-23T00:59:50;13.47;;;10.33;;
5147;SDS011;2592;48.140;7.614;2023-05-23T01:02:17;12.40;;;10.13;;
5147;SDS011;2592;48.140;7.614;2023-05-23T01:04:45;14.47;;;11.80;;
5147;SDS011;2592;48.140;7.614;2023-05-23T01:07:12;12.70;;;10.20;;
5147;SDS011;2592;48.140;7.614;2023-05-23T01:09:39;14.17;;;10.67;;
5147;SDS011;2592;48.140;7.614;2023-05-23T01:12:09;11.73;;;10.53;;
5147;SDS011;2592;48.140;7.614;2023-05-23T01:14:44;14.30;;;10.20;;
5147;SDS011;2592;48.140;7.614;2023-05-23T01:17:14;11.70;;;9.60;;
5147;SDS011;2592;48.140;7.614;2023-05-23T01:19:47;15.17;;;12.07;;
5147;SDS011;2592;48.140;7.614;2023-05-23T01:22:17;15.23;;;11.17;;
5147;SDS011;2592;48.140;7.614;2023-05-23T01:24:48;12.20;;;10.90;;
5147;SDS011;2592;48.140;7.614;2023-05-23T01:27:22;14.63;;;11.87;;
5147;SDS011;2592;48.140;7.614;2023-05-23T01:29:51;12.70;;;10.47;;
5147;SDS011;2592;48.140;7.614;2023-05-23T01:32:19;13.50;;;11.97;;
5147;SDS011;2592;48.140;7.614;2023-05-23T01:34:47;15.60;;;12.03;;
5147;SDS011;2592;48.140;7.614;2023-05-23T01:37:14;14.43;;;11.07;;
5147;SDS011;2592;48.140;7.614;2023-05-23T01:39:43;14.30;;;11.40;;
5147;SDS011;2592;48.140;7.614;2023-05-23T01:42:10;15.70;;;11.10;;
5147;SDS011;2592;48.140;7.614;2023-05-23T01:44:37;14.70;;;12.30;;
5147;SDS011;2592;48.140;7.614;2023-05-23T01:47:06;13.63;;;11.63;;
5147;SDS011;2592;48.140;7.614;2023-05-23T01:49:33;16.57;;;11.73;;
5147;SDS011;2592;48.140;7.614;2023-05-23T01:52:00;13.53;;;12.13;;
5147;SDS011;2592;48.140;7.614;2023-05-23T01:54:27;13.83;;;12.43;;
5147;SDS011;2592;48.140;7.614;2023-05-23T01:56:55;15.20;;;12.10;;
5147;SDS011;2592;48.140;7.614;2023-05-23T01:59:21;13.17;;;11.10;;
5147;SDS011;2592;48.140;7.614;2023-05-23T02:01:48;16.80;;;12.40;;
5147;SDS011;2592;48.140;7.614;2023-05-23T02:04:16;15.87;;;12.33;;
5147;SDS011;2592;48.140;7.614;2023-05-23T02:06:42;17.70;;;12.13;;
5147;SDS011;2592;48.140;7.614;2023-05-23T02:09:09;13.00;;;11.67;;
5147;SDS011;2592;48.140;7.614;2023-05-23T02:11:35;15.03;;;12.37;;
5147;SDS011;2592;48.140;7.614;2023-05-23T02:14:02;12.97;;;11.47;;
5147;SDS011;2592;48.140;7.614;2023-05-23T02:16:28;15.07;;;12.43;;
5147;SDS011;2592;48.140;7.614;2023-05-23T02:18:55;13.53;;;12.13;;
5147;SDS011;2592;48.140;7.614;2023-05-23T02:21:23;19.20;;;12.83;;
5147;SDS011;2592;48.140;7.614;2023-05-23T02:23:49;13.20;;;11.43;;
5147;SDS011;2592;48.140;7.614;2023-05-23T02:26:22;14.53;;;12.07;;
5147;SDS011;2592;48.140;7.614;2023-05-23T02:28:48;14.07;;;12.10;;
5147;SDS011;2592;48.140;7.614;2023-05-23T02:31:15;15.13;;;11.43;;
5147;SDS011;2592;48.140;7.614;2023-05-23T02:33:42;13.80;;;12.27;;
5147;SDS011;2592;48.140;7.614;2023-05-23T02:36:08;12.73;;;11.30;;
5147;SDS011;2592;48.140;7.614;2023-05-23T02:38:36;15.77;;;12.90;;
5147;SDS011;2592;48.140;7.614;2023-05-23T02:41:03;14.63;;;11.30;;
5147;SDS011;2592;48.140;7.614;2023-05-23T02:43:29;14.47;;;11.73;;
5147;SDS011;2592;48.140;7.614;2023-05-23T02:45:56;16.43;;;12.77;;
5147;SDS011;2592;48.140;7.614;2023-05-23T02:48:22;13.30;;;11.10;;
5147;SDS011;2592;48.140;7.614;2023-05-23T02:50:49;21.30;;;13.77;;
5147;SDS011;2592;48.140;7.614;2023-05-23T02:53:15;13.97;;;12.57;;
5147;SDS011;2592;48.140;7.614;2023-05-23T02:55:43;14.30;;;11.93;;
5147;SDS011;2592;48.140;7.614;2023-05-23T02:58:10;17.17;;;13.77;;
5147;SDS011;2592;48.140;7.614;2023-05-23T03:00:36;15.70;;;14.00;;
5147;SDS011;2592;48.140;7.614;2023-05-23T03:03:03;16.00;;;13.20;;
5147;SDS011;2592;48.140;7.614;2023-05-23T03:05:29;14.67;;;13.13;;
5147;SDS011;2592;48.140;7.614;2023-05-23T03:07:56;18.63;;;13.73;;
5147;SDS011;2592;48.140;7.614;2023-05-23T03:10:22;17.97;;;13.63;;
5147;SDS011;2592;48.140;7.614;2023-05-23T03:12:50;17.70;;;12.37;;
5147;SDS011;2592;48.140;7.614;2023-05-23T03:15:16;18.07;;;14.37;;
5147;SDS011;2592;48.140;7.614;2023-05-23T03:17:43;18.03;;;13.77;;
5147;SDS011;2592;48.140;7.614;2023-05-23T03:20:10;15.60;;;13.27;;
5147;SDS011;2592;48.140;7.614;2023-05-23T03:22:36;25.20;;;14.30;;
5147;SDS011;2592;48.140;7.614;2023-05-23T03:25:03;15.67;;;12.90;;
5147;SDS011;2592;48.140;7.614;2023-05-23T03:27:30;15.63;;;13.93;;
5147;SDS011;2592;48.140;7.614;2023-05-23T03:29:57;19.13;;;14.90;;
5147;SDS011;2592;48.140;7.614;2023-05-23T03:32:24;16.40;;;13.83;;
5147;SDS011;2592;48.140;7.614;2023-05-23T03:34:51;20.10;;;14.53;;
5147;SDS011;2592;48.140;7.614;2023-05-23T03:37:17;16.80;;;13.10;;
5147;SDS011;2592;48.140;7.614;2023-05-23T03:39:44;15.37;;;12.93;;
5147;SDS011;2592;48.140;7.614;2023-05-23T03:42:10;19.80;;;13.63;;
5147;SDS011;2592;48.140;7.614;2023-05-23T03:44:37;16.40;;;12.97;;
5147;SDS011;2592;48.140;7.614;2023-05-23T03:47:05;17.83;;;13.70;;
5147;SDS011;2592;48.140;7.614;2023-05-23T03:49:31;17.37;;;14.00;;
5147;SDS011;2592;48.140;7.614;2023-05-23T03:51:58;19.07;;;14.43;;
5147;SDS011;2592;48.140;7.614;2023-05-23T03:54:24;16.70;;;13.70;;
5147;SDS011;2592;48.140;7.614;2023-05-23T03:56:51;17.13;;;15.20;;
5147;SDS011;2592;48.140;7.614;2023-05-23T03:59:17;22.60;;;16.20;;
5147;SDS011;2592;48.140;7.614;2023-05-23T04:01:44;17.83;;;15.73;;
5147;SDS011;2592;48.140;7.614;2023-05-23T04:04:11;19.33;;;15.63;;
5147;SDS011;2592;48.140;7.614;2023-05-23T04:06:38;19.80;;;16.10;;
5147;SDS011;2592;48.140;7.614;2023-05-23T04:09:04;20.13;;;15.33;;
5147;SDS011;2592;48.140;7.614;2023-05-23T04:11:31;24.47;;;17.50;;
5147;SDS011;2592;48.140;7.614;2023-05-23T04:13:57;19.90;;;17.40;;
5147;SDS011;2592;48.140;7.614;2023-05-23T04:16:24;23.07;;;18.40;;
5147;SDS011;2592;48.140;7.614;2023-05-23T04:18:50;20.20;;;18.00;;
5147;SDS011;2592;48.140;7.614;2023-05-23T04:21:19;23.03;;;18.70;;
5147;SDS011;2592;48.140;7.614;2023-05-23T04:23:46;24.67;;;18.13;;
5147;SDS011;2592;48.140;7.614;2023-05-23T04:26:12;18.87;;;16.80;;
5147;SDS011;2592;48.140;7.614;2023-05-23T04:28:39;19.10;;;16.93;;
5147;SDS011;2592;48.140;7.614;2023-05-23T04:31:07;20.37;;;16.20;;
5147;SDS011;2592;48.140;7.614;2023-05-23T04:33:34;17.73;;;15.70;;
5147;SDS011;2592;48.140;7.614;2023-05-23T04:36:00;19.77;;;16.33;;
5147;SDS011;2592;48.140;7.614;2023-05-23T04:38:28;19.33;;;16.10;;
5147;SDS011;2592;48.140;7.614;2023-05-23T04:40:56;22.47;;;16.80;;
5147;SDS011;2592;48.140;7.614;2023-05-23T04:43:22;21.70;;;16.80;;
5147;SDS011;2592;48.140;7.614;2023-05-23T04:45:51;18.87;;;16.80;;
5147;SDS011;2592;48.140;7.614;2023-05-23T04:48:18;22.37;;;18.03;;
5147;SDS011;2592;48.140;7.614;2023-05-23T04:50:46;19.93;;;17.00;;
5147;SDS011;2592;48.140;7.614;2023-05-23T04:53:13;27.63;;;19.63;;
5147;SDS011;2592;48.140;7.614;2023-05-23T04:55:40;41.77;;;19.10;;
5147;SDS011;2592;48.140;7.614;2023-05-23T04:58:07;24.20;;;19.37;;
5147;SDS011;2592;48.140;7.614;2023-05-23T05:00:33;23.00;;;18.87;;
5147;SDS011;2592;48.140;7.614;2023-05-23T05:03:00;22.97;;;17.87;;
5147;SDS011;2592;48.140;7.614;2023-05-23T05:05:26;23.13;;;19.33;;
5147;SDS011;2592;48.140;7.614;2023-05-23T05:07:53;21.20;;;18.87;;
5147;SDS011;2592;48.140;7.614;2023-05-23T05:10:20;27.23;;;19.37;;
5147;SDS011;2592;48.140;7.614;2023-05-23T05:12:47;29.03;;;19.70;;
5147;SDS011;2592;48.140;7.614;2023-05-23T05:15:15;26.80;;;20.47;;
5147;SDS011;2592;48.140;7.614;2023-05-23T05:17:41;25.43;;;20.70;;
5147;SDS011;2592;48.140;7.614;2023-05-23T05:20:08;23.33;;;19.80;;
5147;SDS011;2592;48.140;7.614;2023-05-23T05:22:35;34.77;;;22.00;;
5147;SDS011;2592;48.140;7.614;2023-05-23T05:25:04;26.80;;;20.73;;
5147;SDS011;2592;48.140;7.614;2023-05-23T05:27:31;29.23;;;24.17;;
5147;SDS011;2592;48.140;7.614;2023-05-23T05:29:59;31.87;;;24.37;;
5147;SDS011;2592;48.140;7.614;2023-05-23T05:32:29;32.63;;;24.60;;
5147;SDS011;2592;48.140;7.614;2023-05-23T05:34:57;29.83;;;23.60;;
5147;SDS011;2592;48.140;7.614;2023-05-23T05:37:24;30.40;;;25.20;;
5147;SDS011;2592;48.140;7.614;2023-05-23T05:39:50;33.17;;;24.53;;
5147;SDS011;2592;48.140;7.614;2023-05-23T05:42:18;32.80;;;24.87;;
5147;SDS011;2592;48.140;7.614;2023-05-23T05:44:44;27.43;;;23.47;;
5147;SDS011;2592;48.140;7.614;2023-05-23T05:47:12;37.33;;;26.00;;
5147;SDS011;2592;48.140;7.614;2023-05-23T05:49:39;35.23;;;27.57;;
5147;SDS011;2592;48.140;7.614;2023-05-23T05:52:06;29.77;;;24.60;;
5147;SDS011;2592;48.140;7.614;2023-05-23T05:54:32;32.57;;;27.40;;
5147;SDS011;2592;48.140;7.614;2023-05-23T05:56:59;33.23;;;27.40;;
5147;SDS011;2592;48.140;7.614;2023-05-23T05:59:25;27.70;;;21.67;;
5147;SDS011;2592;48.140;7.614;2023-05-23T06:01:52;32.53;;;26.40;;
5147;SDS011;2592;48.140;7.614;2023-05-23T06:04:20;33.17;;;26.93;;
5147;SDS011;2592;48.140;7.614;2023-05-23T06:06:46;38.03;;;28.73;;
5147;SDS011;2592;48.140;7.614;2023-05-23T06:09:13;35.83;;;29.30;;
5147;SDS011;2592;48.140;7.614;2023-05-23T06:11:39;27.27;;;21.67;;
5147;SDS011;2592;48.140;7.614;2023-05-23T06:14:05;33.80;;;27.07;;
5147;SDS011;2592;48.140;7.614;2023-05-23T06:16:32;31.43;;;24.30;;
5147;SDS011;2592;48.140;7.614;2023-05-23T06:18:58;37.43;;;27.50;;
5147;SDS011;2592;48.140;7.614;2023-05-23T06:21:26;37.70;;;24.63;;
5147;SDS011;2592;48.140;7.614;2023-05-23T06:23:53;39.57;;;28.60;;
5147;SDS011;2592;48.140;7.614;2023-05-23T06:26:19;38.03;;;28.90;;
5147;SDS011;2592;48.140;7.614;2023-05-23T06:28:45;31.33;;;24.00;;
5147;SDS011;2592;48.140;7.614;2023-05-23T06:31:12;38.77;;;27.57;;
5147;SDS011;2592;48.140;7.614;2023-05-23T06:33:38;43.97;;;29.67;;
5147;SDS011;2592;48.140;7.614;2023-05-23T06:36:05;38.80;;;28.20;;
5147;SDS011;2592;48.140;7.614;2023-05-23T06:38:33;42.00;;;25.87;;
5147;SDS011;2592;48.140;7.614;2023-05-23T06:40:59;34.50;;;23.07;;
5147;SDS011;2592;48.140;7.614;2023-05-23T06:43:26;37.40;;;25.80;;
5147;SDS011;2592;48.140;7.614;2023-05-23T06:45:52;46.20;;;28.60;;
5147;SDS011;2592;48.140;7.614;2023-05-23T06:48:19;40.10;;;27.57;;
5147;SDS011;2592;48.140;7.614;2023-05-23T06:50:45;33.20;;;25.93;;
5147;SDS011;2592;48.140;7.614;2023-05-23T06:53:12;36.30;;;29.33;;
5147;SDS011;2592;48.140;7.614;2023-05-23T06:55:41;35.93;;;28.10;;
5147;SDS011;2592;48.140;7.614;2023-05-23T06:58:08;42.80;;;27.87;;
5147;SDS011;2592;48.140;7.614;2023-05-23T07:00:34;40.93;;;31.60;;
5147;SDS011;2592;48.140;7.614;2023-05-23T07:03:02;43.20;;;33.13;;
5147;SDS011;2592;48.140;7.614;2023-05-23T07:05:28;38.30;;;31.00;;
5147;SDS011;2592;48.140;7.614;2023-05-23T07:07:57;41.70;;;34.10;;
5147;SDS011;2592;48.140;7.614;2023-05-23T07:10:23;37.23;;;31.53;;
5147;SDS011;2592;48.140;7.614;2023-05-23T07:12:51;45.90;;;33.90;;
5147;SDS011;2592;48.140;7.614;2023-05-23T07:15:18;47.33;;;33.87;;
5147;SDS011;2592;48.140;7.614;2023-05-23T07:17:45;37.80;;;30.97;;
5147;SDS011;2592;48.140;7.614;2023-05-23T07:20:11;40.93;;;32.20;;
5147;SDS011;2592;48.140;7.614;2023-05-23T07:22:38;39.00;;;30.93;;
5147;SDS011;2592;48.140;7.614;2023-05-23T07:25:05;42.70;;;32.40;;
5147;SDS011;2592;48.140;7.614;2023-05-23T07:27:31;44.83;;;31.53;;
5147;SDS011;2592;48.140;7.614;2023-05-23T07:29:59;40.83;;;31.53;;
5147;SDS011;2592;48.140;7.614;2023-05-23T07:32:27;41.23;;;30.57;;
5147;SDS011;2592;48.140;7.614;2023-05-23T07:34:53;41.90;;;32.23;;
5147;SDS011;2592;48.140;7.614;2023-05-23T07:37:19;41.37;;;31.27;;
5147;SDS011;2592;48.140;7.614;2023-05-23T07:39:46;43.30;;;31.73;;
5147;SDS011;2592;48.140;7.614;2023-05-23T07:42:12;41.10;;;33.00;;
5147;SDS011;2592;48.140;7.614;2023-05-23T07:44:40;40.83;;;32.13;;
5147;SDS011;2592;48.140;7.614;2023-05-23T07:47:07;47.37;;;34.90;;
5147;SDS011;2592;48.140;7.614;2023-05-23T07:49:34;44.23;;;32.20;;
5147;SDS011;2592;48.140;7.614;2023-05-23T07:52:00;41.47;;;32.70;;
5147;SDS011;2592;48.140;7.614;2023-05-23T07:54:27;39.30;;;30.27;;
5147;SDS011;2592;48.140;7.614;2023-05-23T07:56:53;40.07;;;32.00;;
5147;SDS011;2592;48.140;7.614;2023-05-23T07:59:20;39.83;;;32.60;;
5147;SDS011;2592;48.140;7.614;2023-05-23T08:01:47;55.13;;;31.43;;
5147;SDS011;2592;48.140;7.614;2023-05-23T08:04:16;34.37;;;28.00;;
5147;SDS011;2592;48.140;7.614;2023-05-23T08:06:42;38.87;;;30.47;;
5147;SDS011;2592;48.140;7.614;2023-05-23T08:09:11;44.97;;;30.40;;
5147;SDS011;2592;48.140;7.614;2023-05-23T08:11:37;39.43;;;32.20;;
5147;SDS011;2592;48.140;7.614;2023-05-23T08:14:04;41.67;;;30.47;;
5147;SDS011;2592;48.140;7.614;2023-05-23T08:16:30;38.93;;;28.03;;
5147;SDS011;2592;48.140;7.614;2023-05-23T08:18:57;47.77;;;30.80;;
5147;SDS011;2592;48.140;7.614;2023-05-23T08:21:25;38.40;;;28.60;;
5147;SDS011;2592;48.140;7.614;2023-05-23T08:23:51;42.77;;;30.23;;
5147;SDS011;2592;48.140;7.614;2023-05-23T08:26:20;36.60;;;29.90;;
5147;SDS011;2592;48.140;7.614;2023-05-23T08:28:47;33.97;;;28.33;;
5147;SDS011;2592;48.140;7.614;2023-05-23T08:31:13;37.80;;;27.70;;
5147;SDS011;2592;48.140;7.614;2023-05-23T08:33:40;34.97;;;28.17;;
5147;SDS011;2592;48.140;7.614;2023-05-23T08:36:09;39.27;;;29.30;;
5147;SDS011;2592;48.140;7.614;2023-05-23T08:38:37;37.20;;;27.00;;
5147;SDS011;2592;48.140;7.614;2023-05-23T08:41:03;35.20;;;27.30;;
5147;SDS011;2592;48.140;7.614;2023-05-23T08:43:30;33.90;;;25.90;;
5147;SDS011;2592;48.140;7.614;2023-05-23T08:45:57;39.43;;;28.23;;
5147;SDS011;2592;48.140;7.614;2023-05-23T08:48:23;31.60;;;26.20;;
5147;SDS011;2592;48.140;7.614;2023-05-23T08:50:51;38.97;;;27.40;;
5147;SDS011;2592;48.140;7.614;2023-05-23T08:53:18;35.37;;;26.10;;
5147;SDS011;2592;48.140;7.614;2023-05-23T08:55:47;34.50;;;24.80;;
5147;SDS011;2592;48.140;7.614;2023-05-23T08:58:15;34.27;;;25.97;;
5147;SDS011;2592;48.140;7.614;2023-05-23T09:00:43;36.00;;;24.83;;
5147;SDS011;2592;48.140;7.614;2023-05-23T09:03:10;39.13;;;29.23;;
5147;SDS011;2592;48.140;7.614;2023-05-23T09:05:38;33.00;;;26.27;;
5147;SDS011;2592;48.140;7.614;2023-05-23T09:08:05;37.83;;;27.93;;
5147;SDS011;2592;48.140;7.614;2023-05-23T09:10:32;32.20;;;25.70;;
5147;SDS011;2592;48.140;7.614;2023-05-23T09:13:01;40.33;;;28.20;;
5147;SDS011;2592;48.140;7.614;2023-05-23T09:15:29;38.93;;;26.70;;
5147;SDS011;2592;48.140;7.614;2023-05-23T09:17:58;32.90;;;26.47;;
5147;SDS011;2592;48.140;7.614;2023-05-23T09:20:25;35.10;;;25.70;;
5147;SDS011;2592;48.140;7.614;2023-05-23T09:22:53;31.33;;;25.53;;
5147;SDS011;2592;48.140;7.614;2023-05-23T09:25:20;34.63;;;26.73;;
5147;SDS011;2592;48.140;7.614;2023-05-23T09:27:46;32.00;;;24.10;;
5147;SDS011;2592;48.140;7.614;2023-05-23T09:30:14;31.90;;;26.43;;
5147;SDS011;2592;48.140;7.614;2023-05-23T09:32:41;34.40;;;26.90;;
5147;SDS011;2592;48.140;7.614;2023-05-23T09:35:08;31.03;;;25.70;;
5147;SDS011;2592;48.140;7.614;2023-05-23T09:37:39;29.53;;;24.30;;
5147;SDS011;2592;48.140;7.614;2023-05-23T09:40:08;32.97;;;22.33;;
5147;SDS011;2592;48.140;7.614;2023-05-23T09:42:35;46.03;;;23.17;;
5147;SDS011;2592;48.140;7.614;2023-05-23T09:45:06;32.33;;;23.80;;
5147;SDS011;2592;48.140;7.614;2023-05-23T09:47:34;34.60;;;26.20;;
5147;SDS011;2592;48.140;7.614;2023-05-23T09:50:01;27.40;;;24.40;;
5147;SDS011;2592;48.140;7.614;2023-05-23T09:52:27;30.30;;;23.43;;
5147;SDS011;2592;48.140;7.614;2023-05-23T09:54:59;30.67;;;23.17;;
5147;SDS011;2592;48.140;7.614;2023-05-23T09:57:25;26.93;;;22.50;;
5147;SDS011;2592;48.140;7.614;2023-05-23T09:59:52;29.90;;;23.80;;
5147;SDS011;2592;48.140;7.614;2023-05-23T10:02:23;33.87;;;24.43;;
5147;SDS011;2592;48.140;7.614;2023-05-23T10:04:56;29.43;;;23.70;;
5147;SDS011;2592;48.140;7.614;2023-05-23T10:07:23;31.30;;;22.70;;
5147;SDS011;2592;48.140;7.614;2023-05-23T10:09:52;33.87;;;22.27;;
5147;SDS011;2592;48.140;7.614;2023-05-23T10:15:10;33.47;;;21.20;;
5147;SDS011;2592;48.140;7.614;2023-05-23T10:17:49;25.63;;;20.03;;
5147;SDS011;2592;48.140;7.614;2023-05-23T10:20:19;23.20;;;18.97;;
5147;SDS011;2592;48.140;7.614;2023-05-23T10:22:47;21.20;;;17.20;;
5147;SDS011;2592;48.140;7.614;2023-05-23T10:25:13;23.90;;;17.00;;
5147;SDS011;2592;48.140;7.614;2023-05-23T10:27:40;19.80;;;16.37;;
5147;SDS011;2592;48.140;7.614;2023-05-23T10:30:07;21.60;;;17.20;;
5147;SDS011;2592;48.140;7.614;2023-05-23T10:32:34;25.90;;;16.17;;
5147;SDS011;2592;48.140;7.614;2023-05-23T10:35:03;22.93;;;17.70;;
5147;SDS011;2592;48.140;7.614;2023-05-23T10:37:36;21.47;;;19.00;;
5147;SDS011;2592;48.140;7.614;2023-05-23T10:40:04;21.10;;;15.87;;
5147;SDS011;2592;48.140;7.614;2023-05-23T10:42:34;22.70;;;16.00;;
5147;SDS011;2592;48.140;7.614;2023-05-23T10:45:16;17.20;;;14.33;;
5147;SDS011;2592;48.140;7.614;2023-05-23T10:47:43;24.10;;;16.33;;
5147;SDS011;2592;48.140;7.614;2023-05-23T10:50:12;18.57;;;14.50;;
5147;SDS011;2592;48.140;7.614;2023-05-23T10:52:40;20.50;;;14.57;;
5147;SDS011;2592;48.140;7.614;2023-05-23T10:55:11;20.73;;;14.83;;
5147;SDS011;2592;48.140;7.614;2023-05-23T10:57:38;20.20;;;16.00;;
5147;SDS011;2592;48.140;7.614;2023-05-23T11:00:10;16.60;;;14.90;;
5147;SDS011;2592;48.140;7.614;2023-05-23T11:02:37;19.20;;;15.07;;
5147;SDS011;2592;48.140;7.614;2023-05-23T11:05:18;21.97;;;15.13;;
5147;SDS011;2592;48.140;7.614;2023-05-23T11:07:47;18.37;;;15.90;;
5147;SDS011;2592;48.140;7.614;2023-05-23T11:10:31;21.30;;;14.77;;
5147;SDS011;2592;48.140;7.614;2023-05-23T11:13:04;19.10;;;16.17;;
5147;SDS011;2592;48.140;7.614;2023-05-23T11:15:40;21.07;;;15.13;;
5147;SDS011;2592;48.140;7.614;2023-05-23T11:18:09;20.37;;;17.00;;
5147;SDS011;2592;48.140;7.614;2023-05-23T11:20:36;22.10;;;17.03;;
5147;SDS011;2592;48.140;7.614;2023-05-23T11:23:06;23.43;;;16.73;;
5147;SDS011;2592;48.140;7.614;2023-05-23T11:25:39;19.93;;;16.70;;
5147;SDS011;2592;48.140;7.614;2023-05-23T11:28:07;18.77;;;15.70;;
5147;SDS011;2592;48.140;7.614;2023-05-23T11:30:33;21.83;;;16.03;;
5147;SDS011;2592;48.140;7.614;2023-05-23T11:33:00;23.80;;;15.50;;
5147;SDS011;2592;48.140;7.614;2023-05-23T11:35:32;19.27;;;15.97;;
5147;SDS011;2592;48.140;7.614;2023-05-23T11:37:59;17.90;;;15.03;;
5147;SDS011;2592;48.140;7.614;2023-05-23T11:40:31;18.03;;;15.57;;
5147;SDS011;2592;48.140;7.614;2023-05-23T11:42:58;20.40;;;14.67;;
5147;SDS011;2592;48.140;7.614;2023-05-23T11:45:25;16.03;;;14.40;;
5147;SDS011;2592;48.140;7.614;2023-05-23T11:47:52;19.03;;;15.00;;
5147;SDS011;2592;48.140;7.614;2023-05-23T11:50:18;18.33;;;14.67;;
5147;SDS011;2592;48.140;7.614;2023-05-23T11:52:45;20.47;;;14.93;;
5147;SDS011;2592;48.140;7.614;2023-05-23T11:55:15;19.90;;;14.43;;
5147;SDS011;2592;48.140;7.614;2023-05-23T11:57:43;19.17;;;14.77;;
5147;SDS011;2592;48.140;7.614;2023-05-23T12:00:10;17.00;;;13.63;;
5147;SDS011;2592;48.140;7.614;2023-05-23T12:02:38;18.53;;;13.27;;
5147;SDS011;2592;48.140;7.614;2023-05-23T12:05:07;16.17;;;13.67;;
5147;SDS011;2592;48.140;7.614;2023-05-23T12:07:34;15.70;;;12.03;;
5147;SDS011;2592;48.140;7.614;2023-05-23T12:10:01;23.97;;;13.30;;
5147;SDS011;2592;48.140;7.614;2023-05-23T12:12:28;17.50;;;12.70;;
5147;SDS011;2592;48.140;7.614;2023-05-23T12:14:58;17.63;;;12.43;;
5147;SDS011;2592;48.140;7.614;2023-05-23T12:17:24;18.00;;;11.73;;
5147;SDS011;2592;48.140;7.614;2023-05-23T12:19:51;19.00;;;12.27;;
5147;SDS011;2592;48.140;7.614;2023-05-23T12:22:21;15.00;;;11.70;;
5147;SDS011;2592;48.140;7.614;2023-05-23T12:24:48;16.53;;;11.53;;
5147;SDS011;2592;48.140;7.614;2023-05-23T12:27:15;13.07;;;11.00;;
5147;SDS011;2592;48.140;7.614;2023-05-23T12:29:48;16.00;;;12.57;;
5147;SDS011;2592;48.140;7.614;2023-05-23T12:32:16;14.07;;;11.30;;
5147;SDS011;2592;48.140;7.614;2023-05-23T12:34:42;23.43;;;10.80;;
5147;SDS011;2592;48.140;7.614;2023-05-23T12:37:11;12.10;;;10.57;;
5147;SDS011;2592;48.140;7.614;2023-05-23T12:39:38;13.90;;;10.40;;
5147;SDS011;2592;48.140;7.614;2023-05-23T12:42:08;18.13;;;11.00;;
5147;SDS011;2592;48.140;7.614;2023-05-23T12:44:35;15.77;;;12.50;;
5147;SDS011;2592;48.140;7.614;2023-05-23T12:47:01;13.27;;;10.27;;
5147;SDS011;2592;48.140;7.614;2023-05-23T12:49:29;14.00;;;10.10;;
5147;SDS011;2592;48.140;7.614;2023-05-23T12:51:56;15.80;;;11.20;;
5147;SDS011;2592;48.140;7.614;2023-05-23T12:54:22;14.20;;;9.87;;
5147;SDS011;2592;48.140;7.614;2023-05-23T12:56:49;10.73;;;9.27;;
5147;SDS011;2592;48.140;7.614;2023-05-23T12:59:15;18.00;;;9.13;;
5147;SDS011;2592;48.140;7.614;2023-05-23T13:01:42;14.90;;;10.30;;
5147;SDS011;2592;48.140;7.614;2023-05-23T13:04:08;11.10;;;9.73;;
5147;SDS011;2592;48.140;7.614;2023-05-23T13:06:36;14.03;;;9.80;;
5147;SDS011;2592;48.140;7.614;2023-05-23T13:09:03;16.47;;;10.93;;
5147;SDS011;2592;48.140;7.614;2023-05-23T13:11:29;13.27;;;10.07;;
5147;SDS011;2592;48.140;7.614;2023-05-23T13:13:56;11.17;;;9.87;;
5147;SDS011;2592;48.140;7.614;2023-05-23T13:16:23;13.73;;;10.77;;
5147;SDS011;2592;48.140;7.614;2023-05-23T13:18:49;10.30;;;9.10;;
5147;SDS011;2592;48.140;7.614;2023-05-23T13:21:16;11.80;;;10.60;;
5147;SDS011;2592;48.140;7.614;2023-05-23T13:23:43;15.60;;;10.00;;
5147;SDS011;2592;48.140;7.614;2023-05-23T13:26:10;10.53;;;8.87;;
5147;SDS011;2592;48.140;7.614;2023-05-23T13:28:38;13.80;;;9.43;;
5147;SDS011;2592;48.140;7.614;2023-05-23T13:31:04;12.20;;;8.93;;
5147;SDS011;2592;48.140;7.614;2023-05-23T13:33:31;12.30;;;8.13;;
5147;SDS011;2592;48.140;7.614;2023-05-23T13:35:58;11.67;;;8.70;;
5147;SDS011;2592;48.140;7.614;2023-05-23T13:38:24;9.57;;;8.47;;
5147;SDS011;2592;48.140;7.614;2023-05-23T13:40:53;12.73;;;8.37;;
5147;SDS011;2592;48.140;7.614;2023-05-23T13:43:19;11.93;;;8.77;;
5147;SDS011;2592;48.140;7.614;2023-05-23T13:45:46;9.40;;;8.03;;
5147;SDS011;2592;48.140;7.614;2023-05-23T13:48:12;14.00;;;8.03;;
5147;SDS011;2592;48.140;7.614;2023-05-23T13:50:39;10.57;;;7.10;;
5147;SDS011;2592;48.140;7.614;2023-05-23T13:53:05;10.57;;;7.47;;
5147;SDS011;2592;48.140;7.614;2023-05-23T13:55:38;11.20;;;7.93;;
5147;SDS011;2592;48.140;7.614;2023-05-23T13:58:06;9.00;;;7.70;;
5147;SDS011;2592;48.140;7.614;2023-05-23T14:00:32;9.43;;;6.60;;
5147;SDS011;2592;48.140;7.614;2023-05-23T14:02:59;9.03;;;6.60;;
5147;SDS011;2592;48.140;7.614;2023-05-23T14:05:25;9.70;;;6.77;;
5147;SDS011;2592;48.140;7.614;2023-05-23T14:07:52;7.33;;;6.43;;
5147;SDS011;2592;48.140;7.614;2023-05-23T14:10:18;15.13;;;7.10;;
5147;SDS011;2592;48.140;7.614;2023-05-23T14:12:45;10.00;;;6.97;;
5147;SDS011;2592;48.140;7.614;2023-05-23T14:15:13;12.00;;;6.60;;
5147;SDS011;2592;48.140;7.614;2023-05-23T14:17:39;7.63;;;6.10;;
5147;SDS011;2592;48.140;7.614;2023-05-23T14:20:06;7.93;;;6.20;;
5147;SDS011;2592;48.140;7.614;2023-05-23T14:22:33;13.10;;;6.27;;
5147;SDS011;2592;48.140;7.614;2023-05-23T14:24:59;9.37;;;5.70;;
5147;SDS011;2592;48.140;7.614;2023-05-23T14:27:26;12.03;;;6.97;;
5147;SDS011;2592;48.140;7.614;2023-05-23T14:29:52;10.37;;;6.37;;
5147;SDS011;2592;48.140;7.614;2023-05-23T14:32:20;8.13;;;6.20;;
5147;SDS011;2592;48.140;7.614;2023-05-23T14:34:48;13.83;;;5.97;;
5147;SDS011;2592;48.140;7.614;2023-05-23T14:37:14;6.70;;;4.60;;
5147;SDS011;2592;48.140;7.614;2023-05-23T14:39:41;9.57;;;5.20;;
5147;SDS011;2592;48.140;7.614;2023-05-23T14:42:07;8.00;;;4.50;;
5147;SDS011;2592;48.140;7.614;2023-05-23T14:44:34;7.27;;;5.00;;
5147;SDS011;2592;48.140;7.614;2023-05-23T14:47:00;7.53;;;4.93;;
5147;SDS011;2592;48.140;7.614;2023-05-23T14:49:28;6.37;;;5.03;;
5147;SDS011;2592;48.140;7.614;2023-05-23T14:51:54;4.40;;;4.00;;
5147;SDS011;2592;48.140;7.614;2023-05-23T14:54:21;8.43;;;4.30;;